createdAt,value
2018-12-21T00:01:07.341Z,45.65
2018-12-21T00:03:35.416Z,46.50
2018-12-21T00:06:03.472Z,44.88
2018-12-21T00:08:31.555Z,47.85
2018-12-21T00:11:00.516Z,44.50
2018-12-21T00:13:28.682Z,44.30
2018-12-21T00:15:56.947Z,45.75
2018-12-21T00:18:26.508Z,46.42
2018-12-21T00:20:55.541Z,45.73
2018-12-21T00:23:24.706Z,47.33
2018-12-21T00:25:53.683Z,45.78
2018-12-21T00:28:21.844Z,45.33
2018-12-21T00:30:49.108Z,45.55
2018-12-21T00:33:24.916Z,44.50
2018-12-21T00:35:58.363Z,47.43
2018-12-21T00:38:32.784Z,42.95
2018-12-21T00:41:06.220Z,43.85
2018-12-21T00:43:41.079Z,40.38
2018-12-21T00:46:13.287Z,40.58
2018-12-21T00:48:42.175Z,40.58
2018-12-21T00:51:11.374Z,41.77
2018-12-21T00:53:39.581Z,39.80
2018-12-21T00:56:08.164Z,42.45
2018-12-21T00:58:36.061Z,36.25
2018-12-21T01:01:04.600Z,38.13
2018-12-21T01:03:33.808Z,41.53
2018-12-21T01:06:02.166Z,40.45
2018-12-21T01:08:30.591Z,39.30
2018-12-21T01:11:00.072Z,41.28
2018-12-21T01:13:29.594Z,42.27
2018-12-21T01:15:58.926Z,38.10
2018-12-21T01:18:28.082Z,40.43
2018-12-21T01:20:56.278Z,41.40
2018-12-21T01:23:24.736Z,42.05
2018-12-21T01:25:53.106Z,41.35
2018-12-21T01:28:21.271Z,41.37
2018-12-21T01:30:49.504Z,42.60
2018-12-21T01:33:17.751Z,44.60
2018-12-21T01:35:45.603Z,43.70
2018-12-21T01:38:13.761Z,43.05
2018-12-21T01:40:42.122Z,43.13
2018-12-21T01:43:10.431Z,42.43
2018-12-21T01:45:38.680Z,45.23
2018-12-21T01:48:06.840Z,46.23
2018-12-21T01:50:34.898Z,41.70
2018-12-21T01:53:03.043Z,42.95
2018-12-21T01:55:31.463Z,40.08
2018-12-21T01:57:59.612Z,43.25
2018-12-21T02:00:27.815Z,42.60
2018-12-21T02:02:55.709Z,47.00
2018-12-21T02:05:25.275Z,51.85
2018-12-21T02:07:54.758Z,52.13
2018-12-21T02:10:23.003Z,54.58
2018-12-21T02:12:51.378Z,54.30
2018-12-21T02:15:22.055Z,53.35
2018-12-21T02:17:50.383Z,53.85
2018-12-21T02:20:18.654Z,54.35
2018-12-21T02:22:46.996Z,52.90
2018-12-21T02:25:15.299Z,55.65
2018-12-21T02:27:43.455Z,53.15
2018-12-21T02:30:11.720Z,54.40
2018-12-21T02:32:39.967Z,53.40
2018-12-21T02:35:08.372Z,51.95
2018-12-21T02:37:36.495Z,56.25
2018-12-21T02:40:05.414Z,49.65
2018-12-21T02:42:50.152Z,53.00
2018-12-21T02:45:18.433Z,49.50
2018-12-21T02:47:46.527Z,49.65
2018-12-21T02:50:31.460Z,48.80
2018-12-21T02:52:59.744Z,51.25
2018-12-21T02:55:28.140Z,52.20
2018-12-21T02:57:56.353Z,50.12
2018-12-21T03:00:26.807Z,51.53
2018-12-21T03:02:54.796Z,48.13
2018-12-21T03:05:22.863Z,49.33
2018-12-21T03:07:51.127Z,51.10
2018-12-21T03:10:19.372Z,49.05
2018-12-21T03:12:48.530Z,46.33
2018-12-21T03:15:16.790Z,49.23
2018-12-21T03:17:45.918Z,49.55
2018-12-21T03:20:15.195Z,50.28
2018-12-21T03:22:43.244Z,53.38
2018-12-21T03:25:11.301Z,46.68
2018-12-21T03:27:39.310Z,49.08
2018-12-21T03:30:09.081Z,48.63
2018-12-21T03:32:38.330Z,50.75
2018-12-21T03:35:06.657Z,48.73
2018-12-21T03:37:34.658Z,46.60
2018-12-21T03:40:02.761Z,48.70
2018-12-21T03:42:31.192Z,51.10
2018-12-21T03:44:59.363Z,46.98
2018-12-21T03:47:28.492Z,46.37
2018-12-21T03:49:56.464Z,45.30
2018-12-21T03:52:24.807Z,43.52
2018-12-21T03:54:54.451Z,45.67
2018-12-21T03:57:23.244Z,43.50
2018-12-21T03:59:52.238Z,43.23
2018-12-21T04:02:20.991Z,42.40
2018-12-21T04:04:49.668Z,45.15
2018-12-21T04:07:18.674Z,43.50
2018-12-21T04:09:46.958Z,42.17
2018-12-21T04:12:15.034Z,45.20
2018-12-21T04:14:45.937Z,42.35
2018-12-21T04:17:14.406Z,39.63
2018-12-21T04:19:42.556Z,45.55
2018-12-21T04:22:10.859Z,45.05
2018-12-21T04:24:39.891Z,44.98
2018-12-21T04:27:08.290Z,46.65
2018-12-21T04:29:36.558Z,43.78
2018-12-21T04:32:04.715Z,42.93
2018-12-21T04:34:33.865Z,44.20
2018-12-21T04:37:01.791Z,42.98
2018-12-21T04:39:29.974Z,42.85
2018-12-21T04:41:59.231Z,43.55
2018-12-21T04:44:27.791Z,40.65
2018-12-21T04:46:56.133Z,39.20
2018-12-21T04:49:24.469Z,42.10
2018-12-21T04:51:52.616Z,43.52
2018-12-21T04:54:20.930Z,45.78
2018-12-21T04:56:49.284Z,43.42
2018-12-21T04:59:17.799Z,43.02
2018-12-21T05:01:45.808Z,42.45
2018-12-21T05:04:19.729Z,42.58
2018-12-21T05:06:44.295Z,44.30
2018-12-21T05:09:12.637Z,42.78
2018-12-21T05:11:40.907Z,44.98
2018-12-21T05:14:09.210Z,46.40
2018-12-21T05:16:37.311Z,43.28
2018-12-21T05:19:05.275Z,41.70
2018-12-21T05:21:33.618Z,44.70
2018-12-21T05:24:01.911Z,45.65
2018-12-21T05:26:30.929Z,42.50
2018-12-21T05:28:59.289Z,43.85
2018-12-21T05:31:28.403Z,45.63
2018-12-21T05:33:56.998Z,44.70
2018-12-21T05:36:25.215Z,47.48
2018-12-21T05:38:54.532Z,43.52
2018-12-21T05:41:22.659Z,43.55
2018-12-21T05:43:50.863Z,43.42
2018-12-21T05:46:19.983Z,42.62
2018-12-21T05:48:48.363Z,43.50
2018-12-21T05:51:16.746Z,45.00
2018-12-21T05:53:48.056Z,44.85
2018-12-21T05:56:16.555Z,48.75
2018-12-21T05:58:44.702Z,45.65
2018-12-21T06:01:13.412Z,47.83
2018-12-21T06:03:41.660Z,47.38
2018-12-21T06:06:10.788Z,47.00
2018-12-21T06:08:39.004Z,48.75
2018-12-21T06:11:07.441Z,50.40
2018-12-21T06:13:35.623Z,49.90
2018-12-21T06:16:04.763Z,48.05
2018-12-21T06:18:32.873Z,54.48
2018-12-21T06:21:01.299Z,50.50
2018-12-21T06:23:29.647Z,51.40
2018-12-21T06:25:57.789Z,48.68
2018-12-21T06:28:26.080Z,47.65
2018-12-21T06:30:54.347Z,50.43
2018-12-21T06:33:23.384Z,47.05
2018-12-21T06:35:51.652Z,46.50
2018-12-21T06:38:20.866Z,45.20
2018-12-21T06:40:48.862Z,49.13
2018-12-21T06:43:18.092Z,52.78
2018-12-21T06:45:49.902Z,48.70
2018-12-21T06:48:17.972Z,50.17
2018-12-21T06:50:46.391Z,51.02
2018-12-21T06:53:18.022Z,50.63
2018-12-21T06:55:44.399Z,49.15
2018-12-21T06:58:12.563Z,50.52
2018-12-21T07:00:40.512Z,54.27
2018-12-21T07:03:16.881Z,49.63
2018-12-21T07:05:40.578Z,49.30
2018-12-21T07:08:08.623Z,51.13
2018-12-21T07:10:40.650Z,54.20
2018-12-21T07:13:10.283Z,56.08
2018-12-21T07:15:38.415Z,55.65
2018-12-21T07:18:07.344Z,57.62
2018-12-21T07:20:36.432Z,69.53
2018-12-21T07:23:04.463Z,59.08
2018-12-21T07:25:33.255Z,62.40
2018-12-21T07:28:01.533Z,56.92
2018-12-21T07:30:29.788Z,56.20
2018-12-21T07:32:57.844Z,60.00
2018-12-21T07:35:26.139Z,57.75
2018-12-21T07:37:54.080Z,58.60
2018-12-21T07:40:22.437Z,57.33
2018-12-21T07:42:50.655Z,55.03
2018-12-21T07:45:20.700Z,55.88
2018-12-21T07:47:48.871Z,54.42
2018-12-21T07:50:17.147Z,53.28
2018-12-21T07:52:46.891Z,52.95
2018-12-21T07:55:15.092Z,55.17
2018-12-21T07:57:54.364Z,54.20
2018-12-21T08:00:22.601Z,62.27
2018-12-21T08:02:50.555Z,60.80
2018-12-21T08:05:18.722Z,57.48
2018-12-21T08:07:47.056Z,58.75
2018-12-21T08:10:18.632Z,58.23
2018-12-21T08:12:46.872Z,57.60
2018-12-21T08:15:15.416Z,57.93
2018-12-21T08:17:43.550Z,58.90
2018-12-21T08:20:11.947Z,57.45
2018-12-21T08:22:41.075Z,56.20
2018-12-21T08:25:09.463Z,55.40
2018-12-21T08:27:37.733Z,81.30
2018-12-21T08:30:07.805Z,101.85
2018-12-21T08:32:35.908Z,73.22
2018-12-21T08:35:04.517Z,59.27
2018-12-21T08:37:32.956Z,57.88
2018-12-21T08:40:00.888Z,59.08
2018-12-21T08:42:29.190Z,60.10
2018-12-21T08:44:57.756Z,69.37
2018-12-21T08:47:26.040Z,61.28
2018-12-21T08:49:54.279Z,61.90
2018-12-21T08:52:23.259Z,58.35
2018-12-21T08:54:51.531Z,59.58
2018-12-21T08:57:19.826Z,63.92
2018-12-21T08:59:48.263Z,62.43
2018-12-21T09:02:18.479Z,61.15
2018-12-21T09:04:47.574Z,65.67
2018-12-21T09:07:15.764Z,60.92
2018-12-21T09:09:44.203Z,96.35
2018-12-21T09:12:12.368Z,81.35
2018-12-21T09:14:41.515Z,70.05
2018-12-21T09:17:10.483Z,60.90
2018-12-21T09:19:38.823Z,62.03
2018-12-21T09:22:07.176Z,61.60
2018-12-21T09:24:36.259Z,63.20
2018-12-21T09:27:04.585Z,71.60
2018-12-21T09:29:32.475Z,63.10
2018-12-21T09:32:05.055Z,60.75
2018-12-21T09:34:32.021Z,67.08
2018-12-21T09:37:00.151Z,68.17
2018-12-21T09:39:29.255Z,65.80
2018-12-21T09:41:58.357Z,65.22
2018-12-21T09:44:26.541Z,65.35
2018-12-21T09:46:54.799Z,66.30
2018-12-21T09:49:23.100Z,60.90
2018-12-21T09:51:51.126Z,61.58
2018-12-21T09:54:19.182Z,58.15
2018-12-21T09:56:47.512Z,67.32
2018-12-21T09:59:16.659Z,62.10
2018-12-21T10:01:46.671Z,67.55
2018-12-21T10:04:16.981Z,61.55
2018-12-21T10:06:45.128Z,66.33
2018-12-21T10:09:30.311Z,66.70
2018-12-21T10:11:59.831Z,68.02
2018-12-21T10:14:28.376Z,65.97
2018-12-21T10:16:56.747Z,66.72
2018-12-21T10:19:24.872Z,70.52
2018-12-21T10:21:52.823Z,69.22
2018-12-21T10:24:21.194Z,74.72
2018-12-21T10:26:49.156Z,78.75
2018-12-21T10:29:19.255Z,75.72
2018-12-21T10:31:47.654Z,76.45
2018-12-21T10:34:15.774Z,77.60
2018-12-21T10:36:44.713Z,74.37
2018-12-21T10:39:12.746Z,73.72
2018-12-21T10:41:41.132Z,76.60
2018-12-21T10:44:09.403Z,75.45
2018-12-21T10:46:37.627Z,72.62
2018-12-21T10:49:06.364Z,75.30
2018-12-21T10:51:34.303Z,84.65
2018-12-21T10:54:02.451Z,78.22
2018-12-21T10:59:25.951Z,74.32
2018-12-21T11:01:54.003Z,78.05
2018-12-21T11:04:23.664Z,71.67
2018-12-21T11:06:51.770Z,71.40
2018-12-21T11:09:19.931Z,76.22
2018-12-21T11:11:47.993Z,79.90
2018-12-21T11:14:16.107Z,79.15
2018-12-21T11:16:44.295Z,76.90
2018-12-21T11:19:12.703Z,75.55
2018-12-21T11:21:40.932Z,78.85
2018-12-21T11:24:09.621Z,79.77
2018-12-21T11:26:37.537Z,88.17
2018-12-21T11:29:05.775Z,92.17
2018-12-21T11:31:34.811Z,87.22
2018-12-21T11:34:03.311Z,84.32
2018-12-21T11:36:31.317Z,85.60
2018-12-21T11:38:59.640Z,88.00
2018-12-21T11:41:27.898Z,88.07
2018-12-21T11:43:56.258Z,95.00
2018-12-21T11:46:25.322Z,94.97
2018-12-21T11:48:53.794Z,90.57
2018-12-21T11:54:19.746Z,93.15
2018-12-21T11:56:47.674Z,93.45
2018-12-21T11:59:15.808Z,94.17
2018-12-21T12:01:44.006Z,88.85
2018-12-21T12:04:12.227Z,88.85
2018-12-21T12:06:41.439Z,92.15
2018-12-21T12:09:09.774Z,89.52
2018-12-21T12:11:37.956Z,87.85
2018-12-21T12:14:06.953Z,92.10
2018-12-21T12:16:34.923Z,87.17
2018-12-21T12:19:03.180Z,91.42
2018-12-21T12:21:32.670Z,93.33
2018-12-21T12:24:01.883Z,93.67
2018-12-21T12:26:30.676Z,91.17
2018-12-21T12:28:58.741Z,90.70
2018-12-21T12:31:27.065Z,92.47
2018-12-21T12:33:58.159Z,81.37
2018-12-21T12:36:27.318Z,92.95
2018-12-21T12:38:55.438Z,95.72
2018-12-21T12:41:23.516Z,92.80
2018-12-21T12:43:52.528Z,82.33
2018-12-21T12:46:21.655Z,80.10
2018-12-21T12:48:49.871Z,80.35
2018-12-21T12:51:18.063Z,83.90
2018-12-21T12:53:46.549Z,83.15
2018-12-21T12:56:16.671Z,85.75
2018-12-21T12:58:44.630Z,80.45
2018-12-21T13:01:12.599Z,74.62
2018-12-21T13:03:40.843Z,80.25
2018-12-21T13:06:09.193Z,85.45
2018-12-21T13:08:38.953Z,88.30
2018-12-21T13:11:08.568Z,86.35
2018-12-21T13:13:36.716Z,87.22
2018-12-21T13:16:04.966Z,84.20
2018-12-21T13:18:33.325Z,88.70
2018-12-21T13:21:01.587Z,86.30
2018-12-21T13:23:29.853Z,81.67
2018-12-21T13:25:57.849Z,76.02
2018-12-21T13:28:26.052Z,75.50
2018-12-21T13:30:55.438Z,82.40
2018-12-21T13:33:23.849Z,89.10
2018-12-21T13:35:51.937Z,86.22
2018-12-21T13:38:20.047Z,78.78
2018-12-21T13:40:48.096Z,80.65
2018-12-21T13:43:16.363Z,77.50
2018-12-21T13:45:44.707Z,80.40
2018-12-21T13:48:13.120Z,76.17
2018-12-21T13:50:41.214Z,79.35
2018-12-21T13:53:09.112Z,76.97
2018-12-21T13:55:37.482Z,76.37
2018-12-21T13:58:05.653Z,77.40
2018-12-21T14:00:33.543Z,83.20
2018-12-21T14:03:01.804Z,78.67
2018-12-21T14:05:30.127Z,80.20
2018-12-21T14:07:58.549Z,79.82
2018-12-21T14:10:27.804Z,83.92
2018-12-21T14:12:55.746Z,83.85
2018-12-21T14:15:23.983Z,86.20
2018-12-21T14:17:52.264Z,85.17
2018-12-21T14:20:20.686Z,82.22
2018-12-21T14:22:48.637Z,87.10
2018-12-21T14:25:16.844Z,82.80
2018-12-21T14:27:44.915Z,79.25
2018-12-21T14:30:12.872Z,86.35
2018-12-21T14:32:41.170Z,97.25
2018-12-21T14:35:09.150Z,93.42
2018-12-21T14:37:37.299Z,91.80
2018-12-21T14:40:06.172Z,96.17
2018-12-21T14:42:34.239Z,96.72
2018-12-21T14:45:02.337Z,93.72
2018-12-21T14:47:30.339Z,93.85
2018-12-21T14:49:59.172Z,94.87
2018-12-21T14:52:27.409Z,99.58
2018-12-21T14:54:55.580Z,103.53
2018-12-21T14:57:23.645Z,98.80
2018-12-21T14:59:51.821Z,99.80
2018-12-21T15:02:20.100Z,104.65
2018-12-21T15:04:48.291Z,98.15
2018-12-21T15:07:16.557Z,105.52
2018-12-21T15:09:44.732Z,104.80
2018-12-21T15:12:12.763Z,108.50
2018-12-21T15:14:40.961Z,112.70
2018-12-21T15:17:09.368Z,116.40
2018-12-21T15:19:37.538Z,107.32
2018-12-21T15:22:06.676Z,106.45
2018-12-21T15:24:34.988Z,112.17
2018-12-21T15:27:03.271Z,114.45
2018-12-21T15:29:31.431Z,100.15
2018-12-21T15:31:59.961Z,104.07
2018-12-21T15:34:28.021Z,103.83
2018-12-21T15:36:56.346Z,102.87
2018-12-21T15:39:24.712Z,113.32
2018-12-21T15:41:52.936Z,117.87
2018-12-21T15:44:21.217Z,115.92
2018-12-21T15:46:49.396Z,117.33
2018-12-21T15:49:17.668Z,112.55
2018-12-21T15:51:45.955Z,107.27
2018-12-21T15:54:14.387Z,118.30
2018-12-21T15:56:42.665Z,121.87
2018-12-21T15:59:10.999Z,109.40
2018-12-21T16:01:40.295Z,116.93
2018-12-21T16:04:09.474Z,111.65
2018-12-21T16:06:37.628Z,110.22
2018-12-21T16:09:07.277Z,108.70
2018-12-21T16:11:35.566Z,113.77
2018-12-21T16:14:04.058Z,108.70
2018-12-21T16:16:32.073Z,116.08
2018-12-21T16:19:00.248Z,122.87
2018-12-21T16:21:28.659Z,114.95
2018-12-21T16:23:56.947Z,118.45
2018-12-21T16:26:25.136Z,126.05
2018-12-21T16:28:54.643Z,118.00
2018-12-21T16:31:23.761Z,124.45
2018-12-21T16:33:51.953Z,128.47
2018-12-21T16:36:20.236Z,130.93
2018-12-21T16:38:49.336Z,134.60
2018-12-21T16:41:17.264Z,131.72
2018-12-21T16:43:45.580Z,134.70
2018-12-21T16:46:13.608Z,132.10
2018-12-21T16:48:41.660Z,126.12
2018-12-21T16:51:10.011Z,125.00
2018-12-21T16:53:37.967Z,127.05
2018-12-21T16:56:12.423Z,125.07
2018-12-21T16:58:35.907Z,124.25
2018-12-21T17:01:05.100Z,119.57
2018-12-21T17:03:33.487Z,119.93
2018-12-21T17:06:01.688Z,122.67
2018-12-21T17:08:29.977Z,112.90
2018-12-21T17:10:57.910Z,112.60
2018-12-21T17:13:26.231Z,122.58
2018-12-21T17:15:55.367Z,114.05
2018-12-21T17:18:25.663Z,116.37
2018-12-21T17:20:53.650Z,118.35
2018-12-21T17:23:21.590Z,126.50
2018-12-21T17:25:49.971Z,122.80
2018-12-21T17:28:18.739Z,123.00
2018-12-21T17:30:46.944Z,127.90
2018-12-21T17:33:15.043Z,126.40
2018-12-21T17:35:46.394Z,121.20
2018-12-21T17:38:31.278Z,124.58
2018-12-21T17:40:59.632Z,126.38
2018-12-21T17:43:27.903Z,131.70
2018-12-21T17:45:56.172Z,136.77
2018-12-21T17:48:24.444Z,137.72
2018-12-21T17:50:52.785Z,140.90
2018-12-21T17:53:20.729Z,146.30
2018-12-21T17:55:48.984Z,142.18
2018-12-21T17:58:17.100Z,131.32
2018-12-21T18:00:45.517Z,125.27
2018-12-21T18:03:36.362Z,115.32
2018-12-21T18:06:04.499Z,109.95
2018-12-21T18:08:32.784Z,107.70
2018-12-21T18:11:01.908Z,105.90
2018-12-21T18:13:30.284Z,106.80
2018-12-21T18:15:58.336Z,111.83
2018-12-21T18:18:26.656Z,111.35
2018-12-21T18:20:57.005Z,112.20
2018-12-21T18:23:26.838Z,112.95
2018-12-21T18:25:54.862Z,114.28
2018-12-21T18:28:26.991Z,112.40
2018-12-21T18:31:01.554Z,111.32
2018-12-21T18:33:29.895Z,123.33
2018-12-21T18:35:58.092Z,126.25
2018-12-21T18:38:28.698Z,128.23
2018-12-21T18:40:56.788Z,106.95
2018-12-21T18:43:25.041Z,97.42
2018-12-21T18:45:53.303Z,100.22
2018-12-21T18:48:21.598Z,90.87
2018-12-21T18:50:49.909Z,93.58
2018-12-21T18:53:18.050Z,91.37
2018-12-21T18:55:48.879Z,95.42
2018-12-21T18:58:18.240Z,98.45
2018-12-21T19:00:46.257Z,96.12
2018-12-21T19:03:14.487Z,92.65
2018-12-21T19:05:42.764Z,85.83
2018-12-21T19:08:10.963Z,93.90
2018-12-21T19:10:38.895Z,97.30
2018-12-21T19:13:07.283Z,91.10
2018-12-21T19:15:35.589Z,113.97
2018-12-21T19:18:03.908Z,100.65
2018-12-21T19:20:32.016Z,123.60
2018-12-21T19:23:00.342Z,124.72
2018-12-21T19:25:28.532Z,120.15
2018-12-21T19:27:56.867Z,129.80
2018-12-21T19:30:25.360Z,120.90
2018-12-21T19:32:55.191Z,123.02
2018-12-21T19:35:27.631Z,126.75
2018-12-21T19:37:53.670Z,130.05
2018-12-21T19:40:21.997Z,126.55
2018-12-21T19:42:50.180Z,135.50
2018-12-21T19:45:18.400Z,130.03
2018-12-21T19:47:46.642Z,134.10
2018-12-21T19:50:14.599Z,137.90
2018-12-21T19:52:42.975Z,140.35
2018-12-21T19:55:22.860Z,145.43
2018-12-21T19:57:52.176Z,140.47
2018-12-21T20:00:20.473Z,144.53
2018-12-21T20:02:48.770Z,141.30
2018-12-21T20:05:17.124Z,142.30
2018-12-21T20:07:45.315Z,134.78
2018-12-21T20:10:13.540Z,145.75
2018-12-21T20:12:41.983Z,143.47
2018-12-21T20:15:10.234Z,134.07
2018-12-21T20:17:38.288Z,146.13
2018-12-21T20:20:08.931Z,138.55
2018-12-21T20:22:37.095Z,135.72
2018-12-21T20:25:08.183Z,143.62
2018-12-21T20:27:36.360Z,137.22
2018-12-21T20:30:06.312Z,141.37
2018-12-21T20:32:35.864Z,127.82
2018-12-21T20:35:04.864Z,140.05
2018-12-21T20:37:49.983Z,148.40
2018-12-21T20:40:18.220Z,150.72
2018-12-21T20:42:46.416Z,148.68
2018-12-21T20:45:14.296Z,151.82
2018-12-21T20:47:43.155Z,144.70
2018-12-21T20:50:14.169Z,144.93
2018-12-21T20:52:43.394Z,134.87
2018-12-21T20:55:11.655Z,130.35
2018-12-21T20:57:41.076Z,125.82
2018-12-21T21:00:12.381Z,129.10
2018-12-21T21:02:40.562Z,127.70
2018-12-21T21:05:09.750Z,128.30
2018-12-21T21:07:37.988Z,123.70
2018-12-21T21:10:09.127Z,120.92
2018-12-21T21:12:37.436Z,122.10
2018-12-21T21:15:07.375Z,119.30
2018-12-21T21:17:36.764Z,115.92
2018-12-21T21:20:08.232Z,120.80
2018-12-21T21:22:36.552Z,121.28
2018-12-21T21:25:04.956Z,115.03
2018-12-21T21:27:33.032Z,118.77
2018-12-21T21:30:01.328Z,119.37
2018-12-21T21:32:29.695Z,120.13
2018-12-21T21:34:58.007Z,116.45
2018-12-21T21:37:26.521Z,121.37
2018-12-21T21:40:15.076Z,119.22
2018-12-21T21:42:43.356Z,115.90
2018-12-21T21:45:11.500Z,113.77
2018-12-21T21:47:40.543Z,105.95
2018-12-21T21:50:09.128Z,98.33
2018-12-21T21:52:37.067Z,94.00
2018-12-21T21:55:05.275Z,96.87
2018-12-21T21:57:39.183Z,93.20
2018-12-21T22:00:08.224Z,92.67
2018-12-21T22:02:37.517Z,95.03
2018-12-21T22:05:05.471Z,93.60
2018-12-21T22:07:33.687Z,97.67
2018-12-21T22:10:01.983Z,95.38
2018-12-21T22:12:30.309Z,111.15
2018-12-21T22:14:59.435Z,107.30
2018-12-21T22:17:27.607Z,110.65
2018-12-21T22:19:55.573Z,114.35
2018-12-21T22:22:23.807Z,111.50
2018-12-21T22:24:52.205Z,112.37
2018-12-21T22:27:20.471Z,116.88
2018-12-21T22:29:48.718Z,118.75
2018-12-21T22:32:17.034Z,114.57
2018-12-21T22:34:45.329Z,107.80
2018-12-21T22:37:13.465Z,103.55
2018-12-21T22:39:41.771Z,105.22
2018-12-21T22:42:10.013Z,104.65
2018-12-21T22:44:38.322Z,99.05
2018-12-21T22:47:06.689Z,101.27
2018-12-21T22:49:34.971Z,97.37
2018-12-21T22:52:05.058Z,104.27
2018-12-21T22:54:33.072Z,100.30
2018-12-21T22:57:01.407Z,99.70
2018-12-21T22:59:29.629Z,100.30
2018-12-21T23:01:57.867Z,102.40
2018-12-21T23:04:26.179Z,98.90
2018-12-21T23:06:54.441Z,106.22
2018-12-21T23:09:23.684Z,107.12
2018-12-21T23:11:53.104Z,99.47
2018-12-21T23:14:21.254Z,100.02
2018-12-21T23:16:49.597Z,106.05
2018-12-21T23:19:17.996Z,95.92
2018-12-21T23:21:47.352Z,92.88
2018-12-21T23:24:17.534Z,108.52
2018-12-21T23:26:47.607Z,98.65
2018-12-21T23:29:15.931Z,92.53
2018-12-21T23:31:44.237Z,98.80
2018-12-21T23:34:13.302Z,95.22
2018-12-21T23:36:41.502Z,102.40
2018-12-21T23:39:09.800Z,104.85
2018-12-21T23:41:38.238Z,99.47
2018-12-21T23:44:06.458Z,96.72
2018-12-21T23:46:36.818Z,101.67
2018-12-21T23:49:06.155Z,93.90
2018-12-21T23:51:34.464Z,92.45
2018-12-21T23:54:02.826Z,89.58
2018-12-21T23:56:34.685Z,90.32
2018-12-21T23:59:02.991Z,88.75
